KYIP/YIP METAR and TAF weather

Enter ICAO airport designator
Station Type Date Time Source
KYIP METAR 2024/06/15 22:53 UTC NOAA

KYIP 152253Z 11007KT 10SM CLR 24/11 A3014 RMK AO2 SLP203 T02440106


Station Type Date Time Source
KYIP Decoded METAR 2024/06/15 22:53 UTC NOAA

WILLOW RUN AIRPORT, MI, United States (KYIP) 42-14N 083-32W 215M
Jun 15, 2024 - 06:53 PM EDT / 2024.06.15 2253 UTC
Wind: from the ESE (110 degrees) at 8 MPH (7 KT):0
Visibility: 10 mile(s):0
Sky conditions: clear
Temperature: 75.9 F (24.4 C)
Dew Point: 51.1 F (10.6 C)
Relative Humidity: 41%
Pressure (altimeter): 30.14 in. Hg (1020 hPa)
ob: KYIP 152253Z 11007KT 10SM CLR 24/11 A3014 RMK AO2 SLP203 T02440106
cycle: 23

Station Type Date Time Source
KYIP TAF 2024/06/15 18:36 UTC NOAA